createdAt,value
2022-10-16T00:01:23.263Z,16.29
2022-10-16T00:04:11.574Z,16.34
2022-10-16T00:07:00.776Z,16.37
2022-10-16T00:09:48.864Z,16.31
2022-10-16T00:12:36.777Z,16.28
2022-10-16T00:15:24.710Z,16.28
2022-10-16T00:18:12.655Z,16.34
2022-10-16T00:21:04.691Z,16.35
2022-10-16T00:23:54.642Z,16.29
2022-10-16T00:26:42.695Z,16.28
2022-10-16T00:29:30.653Z,16.24
2022-10-16T00:32:19.237Z,16.27
2022-10-16T00:35:07.969Z,15.99
2022-10-16T00:37:55.851Z,16.29
2022-10-16T00:40:45.117Z,16.30
2022-10-16T00:43:39.808Z,16.25
2022-10-16T00:46:30.960Z,16.20
2022-10-16T00:49:22.198Z,16.26
2022-10-16T00:52:10.170Z,16.26
2022-10-16T00:54:58.805Z,16.23
2022-10-16T00:57:50.019Z,16.06
2022-10-16T01:00:38.231Z,16.27
2022-10-16T01:03:31.592Z,16.22
2022-10-16T01:06:32.896Z,16.23
2022-10-16T01:09:26.056Z,16.06
2022-10-16T01:12:18.236Z,16.24
2022-10-16T01:15:13.529Z,16.10
2022-10-16T01:18:10.436Z,16.26
2022-10-16T01:21:04.582Z,16.25
2022-10-16T01:24:03.535Z,16.28
2022-10-16T01:27:26.538Z,16.24
2022-10-16T01:30:20.341Z,16.32
2022-10-16T01:33:13.427Z,16.34
2022-10-16T01:36:08.794Z,16.35
2022-10-16T01:39:02.558Z,16.33
2022-10-16T01:41:56.261Z,16.34
2022-10-16T01:44:47.506Z,16.28
2022-10-16T01:47:37.358Z,16.26
2022-10-16T01:50:26.629Z,16.18
2022-10-16T01:53:17.554Z,16.21
2022-10-16T01:56:10.233Z,16.21
2022-10-16T01:59:04.840Z,16.21
2022-10-16T02:01:57.670Z,16.24
2022-10-16T02:04:49.500Z,15.79
2022-10-16T02:07:37.430Z,16.24
2022-10-16T02:10:26.310Z,16.11
2022-10-16T02:13:19.076Z,16.21
2022-10-16T02:16:08.237Z,16.17
2022-10-16T02:18:57.518Z,16.19
2022-10-16T02:21:51.990Z,16.18
2022-10-16T02:24:49.678Z,16.18
2022-10-16T02:27:43.752Z,16.16
2022-10-16T02:30:37.154Z,16.20
2022-10-16T02:33:27.341Z,16.21
2022-10-16T02:36:16.967Z,16.32
2022-10-16T02:39:06.314Z,16.42
2022-10-16T02:41:54.245Z,16.43
2022-10-16T02:44:42.252Z,16.48
2022-10-16T02:47:30.134Z,16.35
2022-10-16T02:50:18.910Z,16.50
2022-10-16T02:53:08.122Z,16.43
2022-10-16T02:55:56.018Z,16.42
2022-10-16T02:58:43.888Z,16.42
2022-10-16T03:01:32.310Z,16.38
2022-10-16T03:04:20.530Z,16.33
2022-10-16T03:07:08.534Z,16.40
2022-10-16T03:09:58.350Z,16.35
2022-10-16T03:12:46.325Z,16.38
2022-10-16T03:15:34.265Z,16.26
2022-10-16T03:18:22.209Z,16.22
2022-10-16T03:21:10.099Z,16.18
2022-10-16T03:23:58.032Z,16.04
2022-10-16T03:26:47.262Z,16.09
2022-10-16T03:29:35.256Z,16.13
2022-10-16T03:32:23.403Z,16.13
2022-10-16T03:35:11.386Z,16.12
2022-10-16T03:37:59.286Z,16.20
2022-10-16T03:40:47.187Z,16.18
2022-10-16T03:43:36.825Z,16.18
2022-10-16T03:46:24.790Z,16.11
2022-10-16T03:49:12.788Z,16.11
2022-10-16T03:52:00.757Z,16.11
2022-10-16T03:54:48.673Z,16.15
2022-10-16T03:57:36.720Z,16.11
2022-10-16T04:00:26.052Z,16.13
2022-10-16T04:03:14.094Z,16.13
2022-10-16T04:06:02.050Z,16.15
2022-10-16T04:08:49.939Z,16.16
2022-10-16T04:11:37.908Z,16.19
2022-10-16T04:14:25.819Z,16.12
2022-10-16T04:17:15.135Z,16.14
2022-10-16T04:20:03.303Z,16.15
2022-10-16T04:22:51.217Z,16.13
2022-10-16T04:25:39.112Z,16.09
2022-10-16T04:28:27.406Z,16.13
2022-10-16T04:31:15.333Z,16.11
2022-10-16T04:34:04.585Z,16.15
2022-10-16T04:36:52.520Z,16.01
2022-10-16T04:39:40.407Z,16.01
2022-10-16T04:42:28.326Z,16.06
2022-10-16T04:45:17.285Z,16.05
2022-10-16T04:48:05.515Z,15.62
2022-10-16T04:50:55.338Z,15.99
2022-10-16T04:53:43.263Z,15.93
2022-10-16T04:56:31.183Z,15.95
2022-10-16T04:59:19.903Z,15.95
2022-10-16T05:02:07.813Z,15.91
2022-10-16T05:04:55.717Z,15.91
2022-10-16T05:07:44.962Z,15.90
2022-10-16T05:10:32.984Z,15.87
2022-10-16T05:13:20.902Z,15.97
2022-10-16T05:16:08.887Z,16.01
2022-10-16T05:19:22.524Z,16.07
2022-10-16T05:22:05.269Z,16.13
2022-10-16T05:24:54.488Z,16.18
2022-10-16T05:27:42.447Z,16.22
2022-10-16T05:30:30.438Z,16.01
2022-10-16T05:33:18.493Z,15.93
2022-10-16T05:36:08.965Z,15.98
2022-10-16T05:38:56.853Z,15.99
2022-10-16T05:41:46.138Z,15.95
2022-10-16T05:47:27.556Z,16.02
2022-10-16T05:50:15.725Z,16.18
2022-10-16T05:53:03.835Z,16.24
2022-10-16T05:55:54.088Z,16.18
2022-10-16T05:58:45.177Z,16.19
2022-10-16T06:01:33.767Z,16.21
2022-10-16T06:04:01.487Z,16.20
2022-10-16T06:06:30.546Z,16.16
2022-10-16T06:09:00.608Z,16.13
2022-10-16T06:11:31.033Z,16.09
2022-10-16T06:14:03.646Z,16.06
2022-10-16T06:16:31.856Z,16.03
2022-10-16T06:19:00.373Z,16.09
2022-10-16T06:21:29.630Z,16.00
2022-10-16T06:23:58.911Z,15.79
2022-10-16T06:26:29.031Z,15.99
2022-10-16T06:28:57.785Z,16.07
2022-10-16T06:31:29.981Z,16.11
2022-10-16T06:33:57.644Z,16.17
2022-10-16T06:36:26.219Z,16.21
2022-10-16T06:38:54.179Z,16.16
2022-10-16T06:41:23.831Z,16.07
2022-10-16T06:43:51.507Z,16.15
2022-10-16T06:46:21.700Z,16.13
2022-10-16T06:48:50.777Z,16.22
2022-10-16T06:51:19.981Z,16.23
2022-10-16T06:54:05.661Z,16.16
2022-10-16T06:56:34.747Z,16.34
2022-10-16T06:59:02.950Z,16.37
2022-10-16T07:01:31.096Z,16.54
2022-10-16T07:04:00.322Z,16.63
2022-10-16T07:06:29.201Z,16.64
2022-10-16T07:08:56.802Z,16.66
2022-10-16T07:11:25.570Z,16.70
2022-10-16T07:13:55.823Z,16.67
2022-10-16T07:16:26.476Z,16.67
2022-10-16T07:18:59.269Z,16.68
2022-10-16T07:21:30.462Z,16.71
2022-10-16T07:24:00.488Z,16.64
2022-10-16T07:26:30.901Z,16.73
2022-10-16T07:28:58.766Z,16.71
2022-10-16T07:31:27.203Z,16.89
2022-10-16T07:33:55.615Z,17.06
2022-10-16T07:36:23.867Z,17.15
2022-10-16T07:38:55.517Z,17.22
2022-10-16T07:41:26.409Z,17.24
2022-10-16T07:43:55.837Z,17.17
2022-10-16T07:46:24.833Z,17.38
2022-10-16T07:48:52.956Z,17.43
2022-10-16T07:51:22.438Z,17.47
2022-10-16T07:53:50.740Z,17.46
2022-10-16T07:56:20.981Z,17.41
2022-10-16T07:58:50.624Z,17.33
2022-10-16T08:01:19.106Z,17.22
2022-10-16T08:03:49.066Z,17.30
2022-10-16T08:06:17.027Z,17.38
2022-10-16T08:08:44.909Z,17.40
2022-10-16T08:11:12.622Z,17.55
2022-10-16T08:13:41.611Z,17.46
2022-10-16T08:16:10.700Z,17.42
2022-10-16T08:18:39.874Z,17.33
2022-10-16T08:21:08.519Z,17.30
2022-10-16T08:23:36.209Z,17.16
2022-10-16T08:26:07.052Z,17.14
2022-10-16T08:28:35.639Z,17.13
2022-10-16T08:31:09.779Z,16.99
2022-10-16T08:33:37.922Z,16.86
2022-10-16T08:36:07.114Z,16.82
2022-10-16T08:38:35.598Z,16.79
2022-10-16T08:41:21.493Z,16.83
2022-10-16T08:44:05.233Z,16.86
2022-10-16T08:46:49.636Z,16.88
2022-10-16T08:49:19.118Z,16.82
2022-10-16T08:51:47.427Z,16.78
2022-10-16T08:54:24.984Z,16.78
2022-10-16T08:56:52.643Z,16.82
2022-10-16T08:59:21.165Z,16.72
2022-10-16T09:01:54.028Z,16.67
2022-10-16T09:04:46.317Z,16.63
2022-10-16T09:07:20.363Z,16.66
2022-10-16T09:10:00.329Z,16.66
2022-10-16T09:12:32.769Z,16.65
2022-10-16T09:15:12.268Z,16.62
2022-10-16T09:17:54.965Z,16.74
2022-10-16T09:20:32.246Z,16.60
2022-10-16T09:23:14.743Z,16.66
2022-10-16T09:25:46.369Z,16.76
2022-10-16T09:28:14.000Z,16.78
2022-10-16T09:30:41.890Z,16.73
2022-10-16T09:33:13.138Z,16.73
2022-10-16T09:35:43.808Z,17.04
2022-10-16T09:38:23.374Z,17.29
2022-10-16T09:40:58.966Z,17.61
2022-10-16T09:43:36.199Z,17.80
2022-10-16T09:46:05.676Z,17.82
2022-10-16T09:48:39.149Z,17.69
2022-10-16T09:51:08.785Z,17.73
2022-10-16T09:53:42.390Z,17.76
2022-10-16T09:56:14.646Z,18.00
2022-10-16T09:58:46.348Z,17.97
2022-10-16T10:01:16.596Z,17.90
2022-10-16T10:03:46.479Z,17.79
2022-10-16T10:06:22.939Z,17.64
2022-10-16T10:08:59.025Z,17.80
2022-10-16T10:11:49.911Z,17.81
2022-10-16T10:14:21.934Z,17.93
2022-10-16T10:16:49.808Z,18.05
2022-10-16T10:19:20.854Z,18.24
2022-10-16T10:21:48.967Z,18.56
2022-10-16T10:24:18.092Z,18.61
2022-10-16T10:26:53.080Z,18.91
2022-10-16T10:29:31.010Z,19.03
2022-10-16T10:32:07.796Z,19.12
2022-10-16T10:34:54.234Z,19.40
2022-10-16T10:37:35.936Z,19.60
2022-10-16T10:40:13.429Z,19.69
2022-10-16T10:42:51.571Z,19.61
2022-10-16T10:45:25.178Z,19.82
2022-10-16T10:48:06.004Z,19.42
2022-10-16T10:50:41.617Z,19.23
2022-10-16T10:53:20.294Z,19.39
2022-10-16T10:55:56.228Z,19.47
2022-10-16T10:58:51.352Z,19.47
2022-10-16T11:01:24.588Z,19.49
2022-10-16T11:04:12.656Z,19.65
2022-10-16T11:06:47.570Z,19.59
2022-10-16T11:09:19.575Z,19.76
2022-10-16T11:11:51.656Z,19.87
2022-10-16T11:14:22.185Z,20.02
2022-10-16T11:16:55.610Z,19.80
2022-10-16T11:19:35.675Z,20.07
2022-10-16T11:22:11.449Z,19.97
2022-10-16T11:24:47.370Z,19.96
2022-10-16T11:27:21.287Z,20.06
2022-10-16T11:29:58.200Z,20.16
2022-10-16T11:32:31.962Z,20.39
2022-10-16T11:35:04.220Z,20.53
2022-10-16T11:37:39.865Z,20.50
2022-10-16T11:40:22.185Z,20.32
2022-10-16T11:42:57.139Z,20.24
2022-10-16T11:45:31.693Z,20.28
2022-10-16T11:48:08.530Z,20.13
2022-10-16T11:50:42.639Z,20.53
2022-10-16T11:53:20.422Z,20.65
2022-10-16T11:55:48.443Z,20.64
2022-10-16T11:58:24.755Z,20.65
2022-10-16T12:01:01.696Z,20.52
2022-10-16T12:03:35.802Z,20.47
2022-10-16T12:06:27.723Z,20.60
2022-10-16T12:08:58.295Z,20.66
2022-10-16T12:11:35.298Z,20.58
2022-10-16T12:14:09.068Z,20.46
2022-10-16T12:16:39.465Z,20.68
2022-10-16T12:19:15.828Z,20.63
2022-10-16T12:21:44.553Z,20.52
2022-10-16T12:24:29.526Z,20.46
2022-10-16T12:26:57.614Z,20.33
2022-10-16T12:29:32.543Z,20.62
2022-10-16T12:32:00.600Z,20.78
2022-10-16T12:34:31.254Z,20.83
2022-10-16T12:37:11.834Z,20.95
2022-10-16T12:39:41.021Z,20.92
2022-10-16T12:42:35.294Z,21.04
2022-10-16T12:45:03.884Z,21.18
2022-10-16T12:47:48.770Z,21.26
2022-10-16T12:50:29.188Z,21.20
2022-10-16T12:52:56.897Z,21.14
2022-10-16T12:55:26.483Z,21.16
2022-10-16T12:58:12.312Z,21.45
2022-10-16T13:00:47.439Z,21.78
2022-10-16T13:03:42.922Z,22.05
2022-10-16T13:06:20.820Z,22.25
2022-10-16T13:09:26.899Z,22.34
2022-10-16T13:12:18.869Z,22.30
2022-10-16T13:15:03.462Z,22.06
2022-10-16T13:17:40.705Z,21.96
2022-10-16T13:20:19.358Z,21.87
2022-10-16T13:22:56.718Z,21.87
2022-10-16T13:25:33.172Z,21.53
2022-10-16T13:28:03.835Z,21.28
2022-10-16T13:30:33.941Z,21.18
2022-10-16T13:33:04.179Z,20.86
2022-10-16T13:35:33.968Z,20.72
2022-10-16T13:38:15.465Z,20.51
2022-10-16T13:40:54.456Z,20.48
2022-10-16T13:43:27.983Z,20.38
2022-10-16T13:46:00.773Z,20.33
2022-10-16T13:48:28.525Z,20.35
2022-10-16T13:51:07.971Z,20.31
2022-10-16T13:53:37.136Z,20.18
2022-10-16T13:56:07.498Z,20.08
2022-10-16T13:58:36.468Z,20.03
2022-10-16T14:01:07.600Z,19.89
2022-10-16T14:03:37.132Z,19.95
2022-10-16T14:06:09.792Z,20.04
2022-10-16T14:08:37.473Z,20.07
2022-10-16T14:11:05.276Z,19.86
2022-10-16T14:13:38.407Z,19.93
2022-10-16T14:16:10.209Z,19.94
2022-10-16T14:18:40.620Z,19.90
2022-10-16T14:21:13.825Z,19.76
2022-10-16T14:23:42.887Z,19.69
2022-10-16T14:26:16.975Z,19.32
2022-10-16T14:28:47.690Z,19.42
2022-10-16T14:31:30.614Z,19.37
2022-10-16T14:34:01.610Z,19.53
2022-10-16T14:36:30.668Z,19.50
2022-10-16T14:39:02.984Z,19.48
2022-10-16T14:41:32.445Z,19.46
2022-10-16T14:44:04.890Z,18.97
2022-10-16T14:46:36.591Z,19.24
2022-10-16T14:49:20.792Z,19.16
2022-10-16T14:51:49.085Z,19.20
2022-10-16T14:54:18.895Z,18.94
2022-10-16T14:56:52.044Z,19.04
2022-10-16T14:59:26.858Z,18.94
2022-10-16T15:01:54.598Z,18.95
2022-10-16T15:04:22.206Z,19.03
2022-10-16T15:06:50.041Z,19.15
2022-10-16T15:09:17.738Z,19.38
2022-10-16T15:11:45.822Z,19.45
2022-10-16T15:16:48.869Z,19.40
2022-10-16T15:19:16.541Z,19.57
2022-10-16T15:21:44.503Z,19.55
2022-10-16T15:24:16.717Z,19.56
2022-10-16T15:26:47.797Z,19.56
2022-10-16T15:29:15.509Z,19.30
2022-10-16T15:31:43.569Z,19.59
2022-10-16T15:34:14.027Z,19.38
2022-10-16T15:36:41.842Z,19.15
2022-10-16T15:39:14.967Z,19.05
2022-10-16T15:41:42.760Z,18.96
2022-10-16T15:44:10.676Z,18.83
2022-10-16T15:46:38.341Z,18.70
2022-10-16T15:49:06.252Z,18.56
2022-10-16T15:51:35.292Z,18.44
2022-10-16T15:54:03.189Z,18.43
2022-10-16T15:56:34.032Z,18.44
2022-10-16T15:59:02.906Z,18.34
2022-10-16T16:01:34.252Z,18.22
2022-10-16T16:04:07.484Z,18.10
2022-10-16T16:06:45.639Z,18.08
2022-10-16T16:09:14.378Z,18.01
2022-10-16T16:11:42.380Z,17.98
2022-10-16T16:14:13.822Z,17.86
2022-10-16T16:16:42.229Z,17.69
2022-10-16T16:19:11.690Z,17.13
2022-10-16T16:21:40.180Z,17.59
2022-10-16T16:24:09.721Z,17.48
2022-10-16T16:26:40.791Z,17.41
2022-10-16T16:29:09.370Z,17.31
2022-10-16T16:31:37.181Z,17.09
2022-10-16T16:34:05.117Z,17.06
2022-10-16T16:36:33.824Z,16.83
2022-10-16T16:39:01.560Z,16.84
2022-10-16T16:41:31.976Z,16.87
2022-10-16T16:44:04.416Z,16.72
2022-10-16T16:46:32.931Z,16.74
2022-10-16T16:49:00.908Z,16.78
2022-10-16T16:51:28.807Z,16.71
2022-10-16T16:53:56.742Z,16.47
2022-10-16T16:56:25.830Z,16.77
2022-10-16T16:58:56.865Z,16.77
2022-10-16T17:01:26.347Z,16.72
2022-10-16T17:03:56.222Z,16.62
2022-10-16T17:06:26.961Z,16.70
2022-10-16T17:08:55.358Z,16.64
2022-10-16T17:11:24.699Z,16.61
2022-10-16T17:13:56.959Z,16.53
2022-10-16T17:16:28.034Z,16.45
2022-10-16T17:18:55.903Z,16.41
2022-10-16T17:21:23.693Z,16.40
2022-10-16T17:23:53.722Z,16.32
2022-10-16T17:26:21.721Z,16.28
2022-10-16T17:28:53.042Z,16.32
2022-10-16T17:31:23.715Z,16.29
2022-10-16T17:33:52.474Z,16.17
2022-10-16T17:36:21.885Z,16.17
2022-10-16T17:38:50.358Z,15.88
2022-10-16T17:41:20.986Z,15.57
2022-10-16T17:43:49.398Z,16.12
2022-10-16T17:46:19.214Z,16.02
2022-10-16T17:48:50.786Z,16.06
2022-10-16T17:51:21.141Z,16.05
2022-10-16T17:53:49.892Z,16.02
2022-10-16T17:56:17.928Z,16.07
2022-10-16T17:58:49.010Z,16.09
2022-10-16T18:01:21.993Z,16.13
2022-10-16T18:03:52.313Z,16.08
2022-10-16T18:06:23.094Z,15.97
2022-10-16T18:08:51.328Z,15.96
2022-10-16T18:11:19.279Z,16.00
2022-10-16T18:13:47.097Z,15.95
2022-10-16T18:16:16.517Z,16.00
2022-10-16T18:18:45.864Z,15.81
2022-10-16T18:21:17.297Z,15.95
2022-10-16T18:23:50.919Z,15.59
2022-10-16T18:26:21.024Z,15.87
2022-10-16T18:28:48.920Z,15.84
2022-10-16T18:31:18.205Z,15.57
2022-10-16T18:33:50.358Z,15.79
2022-10-16T18:36:21.802Z,15.71
2022-10-16T18:38:50.208Z,15.77
2022-10-16T18:41:17.977Z,15.69
2022-10-16T18:43:45.643Z,15.76
2022-10-16T18:46:16.029Z,15.81
2022-10-16T18:48:44.721Z,15.85
2022-10-16T18:51:14.796Z,15.76
2022-10-16T18:53:46.884Z,15.82
2022-10-16T18:56:16.152Z,15.94
2022-10-16T18:58:45.367Z,15.87
2022-10-16T19:01:16.318Z,15.97
2022-10-16T19:03:44.919Z,16.05
2022-10-16T19:06:14.954Z,16.09
2022-10-16T19:08:44.431Z,16.10
2022-10-16T19:11:15.081Z,16.43
2022-10-16T19:13:43.144Z,16.54
2022-10-16T19:16:20.342Z,16.65
2022-10-16T19:18:49.452Z,16.82
2022-10-16T19:21:18.470Z,16.97
2022-10-16T19:23:48.083Z,17.28
2022-10-16T19:26:18.028Z,17.43
2022-10-16T19:28:46.473Z,17.33
2022-10-16T19:31:16.498Z,17.60
2022-10-16T19:33:44.351Z,17.40
2022-10-16T19:36:13.882Z,17.19
2022-10-16T19:38:42.653Z,17.16
2022-10-16T19:41:14.038Z,17.04
2022-10-16T19:43:42.301Z,17.00
2022-10-16T19:46:12.612Z,17.18
2022-10-16T19:48:40.957Z,17.22
2022-10-16T19:51:12.590Z,17.36
2022-10-16T19:53:40.246Z,17.55
2022-10-16T19:56:16.087Z,17.69
2022-10-16T19:58:44.525Z,17.83
2022-10-16T20:01:13.143Z,17.76
2022-10-16T20:03:59.940Z,17.48
2022-10-16T20:06:47.863Z,17.43
2022-10-16T20:09:36.091Z,17.20
2022-10-16T20:12:25.335Z,17.05
2022-10-16T20:15:13.237Z,17.01
2022-10-16T20:18:01.140Z,16.88
2022-10-16T20:20:52.216Z,16.93
2022-10-16T20:23:40.978Z,16.69
2022-10-16T20:26:29.206Z,16.73
2022-10-16T20:29:18.618Z,16.61
2022-10-16T20:32:06.553Z,16.43
2022-10-16T20:34:54.435Z,16.41
2022-10-16T20:37:44.666Z,15.62
2022-10-16T20:40:35.067Z,16.18
2022-10-16T20:43:23.088Z,16.18
2022-10-16T20:46:14.258Z,16.24
2022-10-16T20:49:10.678Z,16.23
2022-10-16T20:51:59.347Z,16.15
2022-10-16T20:54:47.295Z,15.97
2022-10-16T20:57:35.223Z,15.87
2022-10-16T21:00:23.241Z,15.85
2022-10-16T21:03:13.038Z,15.81
2022-10-16T21:06:03.157Z,15.70
2022-10-16T21:08:51.551Z,15.63
2022-10-16T21:11:39.768Z,15.62
2022-10-16T21:14:27.699Z,15.57
2022-10-16T21:17:15.647Z,15.56
2022-10-16T21:20:05.679Z,15.54
2022-10-16T21:22:53.619Z,15.55
2022-10-16T21:25:49.078Z,15.54
2022-10-16T21:28:37.042Z,15.02
2022-10-16T21:31:25.178Z,15.48
2022-10-16T21:34:13.165Z,15.49
2022-10-16T21:37:02.440Z,15.45
2022-10-16T21:39:50.410Z,15.45
2022-10-16T21:42:38.382Z,15.41
2022-10-16T21:45:26.384Z,15.42
2022-10-16T21:48:14.302Z,15.42
2022-10-16T21:51:02.313Z,15.42
2022-10-16T21:53:51.549Z,15.37
2022-10-16T21:56:39.875Z,15.41
2022-10-16T21:59:27.800Z,15.36
2022-10-16T22:02:15.719Z,15.34
2022-10-16T22:05:03.712Z,15.37
2022-10-16T22:07:51.624Z,15.36
2022-10-16T22:10:40.915Z,15.34
2022-10-16T22:13:28.801Z,15.37
2022-10-16T22:16:20.713Z,15.35
2022-10-16T22:19:08.949Z,15.33
2022-10-16T22:21:57.352Z,15.33
2022-10-16T22:24:45.436Z,15.31
2022-10-16T22:27:34.700Z,15.30
2022-10-16T22:30:22.683Z,15.36
2022-10-16T22:33:10.604Z,15.34
2022-10-16T22:36:00.975Z,15.25
2022-10-16T22:38:49.013Z,15.25
2022-10-16T22:41:37.088Z,15.29
2022-10-16T22:44:30.903Z,15.33
2022-10-16T22:47:18.786Z,15.42
2022-10-16T22:50:07.472Z,15.41
2022-10-16T22:52:56.636Z,15.41
2022-10-16T22:55:45.338Z,15.40
2022-10-16T22:58:33.542Z,15.48
2022-10-16T23:01:24.821Z,15.50
2022-10-16T23:04:12.790Z,15.47
2022-10-16T23:07:01.072Z,15.42
2022-10-16T23:09:49.060Z,15.43
2022-10-16T23:12:37.503Z,15.42
2022-10-16T23:15:25.465Z,15.48
2022-10-16T23:18:14.744Z,15.53
2022-10-16T23:21:05.928Z,15.51
2022-10-16T23:23:55.086Z,15.49
2022-10-16T23:26:43.046Z,15.46
2022-10-16T23:29:31.010Z,15.50
2022-10-16T23:32:18.944Z,15.42
2022-10-16T23:35:09.120Z,15.36
2022-10-16T23:37:58.126Z,15.39
2022-10-16T23:40:46.052Z,15.38
2022-10-16T23:43:34.047Z,15.35
2022-10-16T23:46:22.076Z,15.32
2022-10-16T23:49:10.103Z,15.31
2022-10-16T23:51:59.344Z,15.38
2022-10-16T23:54:47.248Z,15.35
2022-10-16T23:57:35.150Z,15.30
